Time;durP1;ratioP1;P1;durP2;ratioP2;P2;SDS_P1;SDS_P2;PMS_P1;PMS_P2;Temp;Humidity;BMP_temperature;BMP_pressure;BME280_temperature;BME280_humidity;BME280_pressure;Samples;Min_cycle;Max_cycle;Signal;HPM_P1;HPM_P2
2022/01/30 00:01:34;;;;;;;33.20;4.85;;;6.80;99.90;;;;;;5036139;28;20033;-56
2022/01/30 00:03:59;;;;;;;26.35;4.35;;;6.70;99.90;;;;;;5036603;28;20041;-59
2022/01/30 00:06:25;;;;;;;30.77;6.57;;;6.60;99.90;;;;;;5037131;28;20036;-60
2022/01/30 00:08:51;;;;;;;25.90;4.53;;;6.60;99.90;;;;;;5032220;28;20079;-60
2022/01/30 00:11:21;;;;;;;34.08;4.32;;;6.60;99.90;;;;;;5029779;28;20026;-58
2022/01/30 00:13:47;;;;;;;27.88;4.90;;;6.60;99.90;;;;;;5037592;28;20098;-58
2022/01/30 00:16:15;;;;;;;32.85;5.30;;;6.60;99.90;;;;;;5047509;28;20041;-58
2022/01/30 00:19:01;;;;;;;28.83;5.25;;;6.60;99.90;;;;;;5044718;28;20037;-59
2022/01/30 00:24:01;;;;;;;24.13;4.00;;;6.50;99.90;;;;;;5042733;28;20409;-58
2022/01/30 00:26:30;;;;;;;33.10;5.35;;;6.60;99.90;;;;;;5041449;28;20053;-59
2022/01/30 00:28:56;;;;;;;38.22;4.47;;;6.50;99.90;;;;;;5042498;28;20025;-59
2022/01/30 00:31:23;;;;;;;30.02;5.05;;;6.50;99.90;;;;;;5035586;28;20045;-58
2022/01/30 00:33:49;;;;;;;36.70;5.20;;;6.50;99.90;;;;;;5046019;28;20020;-56
2022/01/30 00:36:15;;;;;;;19.83;4.40;;;6.50;99.90;;;;;;5049480;28;20028;-58
2022/01/30 00:38:41;;;;;;;28.60;4.40;;;6.50;99.90;;;;;;5039554;28;20463;-58
2022/01/30 00:41:08;;;;;;;33.22;4.82;;;6.40;99.90;;;;;;5049576;28;20410;-58
2022/01/30 00:43:33;;;;;;;36.25;6.47;;;6.40;99.90;;;;;;5046835;28;20555;-57
2022/01/30 00:45:59;;;;;;;25.58;4.75;;;6.40;99.90;;;;;;5041660;28;20041;-58
2022/01/30 00:48:25;;;;;;;30.90;4.82;;;6.40;99.90;;;;;;5048823;28;20048;-59
2022/01/30 00:50:50;;;;;;;35.85;4.95;;;6.30;99.90;;;;;;5044406;28;20021;-57
2022/01/30 00:53:16;;;;;;;35.80;4.60;;;6.30;99.90;;;;;;5041382;28;20029;-59
2022/01/30 00:55:42;;;;;;;36.88;6.38;;;6.30;99.90;;;;;;5033103;28;20051;-55
2022/01/30 00:58:07;;;;;;;24.17;5.40;;;6.20;99.90;;;;;;5049203;28;20048;-55
2022/01/30 01:00:34;;;;;;;30.05;4.78;;;6.20;99.90;;;;;;5046744;28;20029;-59
2022/01/30 01:03:00;;;;;;;28.65;5.20;;;6.10;99.90;;;;;;5039019;28;20038;-59
2022/01/30 01:05:27;;;;;;;32.15;4.25;;;6.10;99.90;;;;;;5008266;28;20033;-59
2022/01/30 01:07:55;;;;;;;30.65;8.85;;;6.10;99.90;;;;;;5038554;28;20021;-60
2022/01/30 01:13:13;;;;;;;21.02;3.97;;;5.90;99.90;;;;;;5046390;28;20095;-59
2022/01/30 01:23:58;;;;;;;34.42;5.70;;;5.70;99.90;;;;;;5046749;28;20029;-57
2022/01/30 01:26:25;;;;;;;23.55;4.25;;;5.60;99.90;;;;;;5044416;28;20025;-57
2022/01/30 01:28:52;;;;;;;28.90;4.50;;;5.60;99.90;;;;;;5046807;28;20013;-58
2022/01/30 01:31:18;;;;;;;30.40;6.95;;;5.60;99.90;;;;;;5050262;28;20083;-59
2022/01/30 01:34:02;;;;;;;23.20;4.30;;;5.50;99.90;;;;;;5049352;28;20029;-57
2022/01/30 01:36:28;;;;;;;25.67;4.68;;;5.50;99.90;;;;;;5045013;28;20026;-58
2022/01/30 01:38:54;;;;;;;36.65;5.40;;;5.50;99.90;;;;;;5043787;28;20037;-57
2022/01/30 01:41:20;;;;;;;31.00;4.38;;;5.40;99.90;;;;;;5046252;28;20025;-57
2022/01/30 01:43:50;;;;;;;27.52;4.13;;;5.40;99.90;;;;;;5042274;28;20044;-56
2022/01/30 01:46:21;;;;;;;19.70;3.95;;;5.30;99.90;;;;;;5048759;28;20036;-58
2022/01/30 01:48:50;;;;;;;34.30;4.45;;;5.30;99.90;;;;;;5048528;28;20456;-58
2022/01/30 01:51:19;;;;;;;27.95;4.32;;;5.30;99.90;;;;;;5047069;28;20025;-54
2022/01/30 01:53:50;;;;;;;24.77;4.22;;;5.20;99.90;;;;;;5036165;28;20082;-57
2022/01/30 01:56:17;;;;;;;31.38;4.97;;;5.20;99.90;;;;;;5047540;28;20041;-58
2022/01/30 01:58:43;;;;;;;34.10;5.50;;;5.10;99.90;;;;;;5036935;28;20029;-57
2022/01/30 02:01:09;;;;;;;34.83;7.45;;;5.10;99.90;;;;;;5041254;28;20102;-56
2022/01/30 02:03:37;;;;;;;33.03;5.10;;;5.00;99.90;;;;;;5041180;28;20032;-57
2022/01/30 02:06:04;;;;;;;36.17;4.72;;;5.00;99.90;;;;;;5045261;28;20025;-58
2022/01/30 02:08:38;;;;;;;33.25;5.38;;;4.90;99.90;;;;;;5040155;28;20025;-56
2022/01/30 02:14:16;;;;;;;36.55;4.93;;;4.90;99.90;;;;;;5037504;28;20103;-57
2022/01/30 02:27:36;;;;;;;27.10;6.20;;;4.80;99.90;;;;;;5052031;28;20025;-59
2022/01/30 02:30:13;;;;;;;29.67;4.40;;;4.70;99.90;;;;;;5031441;28;20041;-58
2022/01/30 02:32:39;;;;;;;30.83;6.10;;;4.70;99.90;;;;;;5039885;28;20062;-56
2022/01/30 02:35:05;;;;;;;25.73;4.80;;;4.70;99.90;;;;;;5048556;28;20110;-59
2022/01/30 02:37:30;;;;;;;29.98;5.65;;;4.70;99.90;;;;;;5048595;28;20124;-59
2022/01/30 02:39:56;;;;;;;31.20;5.22;;;4.70;99.90;;;;;;5043346;28;20668;-58
2022/01/30 02:42:25;;;;;;;35.17;4.00;;;4.70;99.90;;;;;;5040130;28;20173;-57
2022/01/30 02:44:55;;;;;;;39.47;5.97;;;4.60;99.90;;;;;;5034367;28;20105;-58
2022/01/30 02:52:35;;;;;;;40.03;4.80;;;4.50;99.90;;;;;;5037629;28;20036;-58
2022/01/30 02:55:01;;;;;;;40.08;5.78;;;4.50;99.90;;;;;;5037445;28;20583;-59
2022/01/30 02:57:26;;;;;;;41.35;5.50;;;4.50;99.90;;;;;;5041439;28;20083;-58
2022/01/30 02:59:52;;;;;;;26.80;4.43;;;4.50;99.90;;;;;;5033549;28;20105;-59
2022/01/30 03:02:18;;;;;;;28.40;4.85;;;4.50;99.90;;;;;;5046055;28;20297;-58
2022/01/30 03:04:43;;;;;;;28.27;4.70;;;4.50;99.90;;;;;;5039615;28;20399;-58
2022/01/30 03:07:09;;;;;;;35.88;5.00;;;4.40;99.90;;;;;;5038518;28;20126;-59
2022/01/30 03:09:36;;;;;;;25.60;6.40;;;4.40;99.90;;;;;;5043683;28;20563;-59
2022/01/30 03:12:02;;;;;;;25.75;3.85;;;4.40;99.90;;;;;;5039579;28;20038;-58
2022/01/30 03:14:28;;;;;;;32.42;4.78;;;4.40;99.90;;;;;;5036670;28;20029;-58
2022/01/30 03:16:53;;;;;;;32.13;4.90;;;4.40;99.90;;;;;;5035945;28;20021;-56
2022/01/30 03:19:19;;;;;;;24.50;4.25;;;4.40;99.90;;;;;;5031962;28;20102;-58
2022/01/30 03:21:45;;;;;;;35.05;4.75;;;4.40;99.90;;;;;;5036033;28;20029;-57
2022/01/30 03:24:11;;;;;;;23.08;4.35;;;4.40;99.90;;;;;;5044347;28;20112;-57
2022/01/30 03:26:39;;;;;;;22.25;3.92;;;4.50;99.90;;;;;;5049821;28;20394;-58
2022/01/30 03:29:06;;;;;;;38.90;6.97;;;4.50;99.90;;;;;;5041069;28;20025;-58
2022/01/30 03:31:37;;;;;;;32.88;4.80;;;4.50;99.90;;;;;;5031995;28;20029;-59
2022/01/30 03:34:05;;;;;;;36.45;5.78;;;4.60;99.90;;;;;;5049593;28;20044;-59
2022/01/30 03:36:31;;;;;;;30.50;5.20;;;4.60;99.90;;;;;;5030472;28;20530;-59
2022/01/30 03:38:58;;;;;;;45.30;4.20;;;4.60;99.90;;;;;;5031408;28;20049;-59
2022/01/30 03:41:24;;;;;;;27.67;5.18;;;4.70;99.90;;;;;;5033421;28;20609;-58
2022/01/30 03:43:50;;;;;;;27.88;4.97;;;4.70;99.90;;;;;;5044467;28;20100;-57
2022/01/30 03:46:18;;;;;;;22.95;4.40;;;4.70;99.90;;;;;;5030469;28;20093;-58
2022/01/30 03:48:44;;;;;;;36.67;6.38;;;4.70;99.90;;;;;;5033177;28;20067;-58
2022/01/30 03:51:09;;;;;;;26.48;4.43;;;4.70;99.90;;;;;;5042086;28;20502;-57
2022/01/30 03:53:35;;;;;;;29.70;5.80;;;4.80;99.90;;;;;;5037394;28;20033;-58
2022/01/30 03:56:00;;;;;;;31.75;5.55;;;4.80;99.90;;;;;;5033785;28;20034;-56
2022/01/30 03:58:26;;;;;;;42.20;5.43;;;4.70;99.90;;;;;;5042587;28;20029;-59
2022/01/30 04:00:51;;;;;;;38.38;4.15;;;4.80;99.90;;;;;;5031787;28;20025;-55
2022/01/30 04:03:17;;;;;;;30.55;4.32;;;4.70;99.90;;;;;;5029315;28;20099;-58
2022/01/30 04:05:42;;;;;;;31.52;5.47;;;4.70;99.90;;;;;;5030882;28;20057;-57
2022/01/30 04:08:08;;;;;;;28.40;4.60;;;4.70;99.90;;;;;;5037097;28;20029;-59
2022/01/30 04:10:34;;;;;;;29.48;4.78;;;4.70;99.90;;;;;;5045119;28;20059;-59
2022/01/30 04:13:00;;;;;;;24.90;5.03;;;4.80;99.90;;;;;;5049921;28;20373;-59
2022/01/30 04:15:26;;;;;;;35.92;5.38;;;4.80;99.90;;;;;;5036511;28;20348;-59
2022/01/30 04:17:52;;;;;;;30.52;4.50;;;4.80;99.90;;;;;;5031607;28;20030;-59
2022/01/30 04:20:17;;;;;;;36.75;6.35;;;4.90;99.90;;;;;;5036104;28;20037;-59
2022/01/30 04:22:43;;;;;;;22.65;3.78;;;4.90;99.90;;;;;;5030565;28;20407;-59
2022/01/30 04:25:08;;;;;;;27.67;5.70;;;4.90;99.90;;;;;;5047352;28;20067;-59
2022/01/30 04:27:34;;;;;;;28.48;4.22;;;5.00;99.90;;;;;;5031071;28;20037;-59
2022/01/30 04:30:00;;;;;;;27.70;4.78;;;4.90;99.90;;;;;;5039823;28;20053;-59
2022/01/30 04:32:27;;;;;;;36.90;5.15;;;4.90;99.90;;;;;;5036674;28;20041;-58
2022/01/30 04:34:57;;;;;;;23.08;3.78;;;4.90;99.90;;;;;;5042797;28;20037;-58
2022/01/30 04:37:38;;;;;;;32.17;5.65;;;4.90;99.90;;;;;;5034152;28;20033;-58
2022/01/30 04:40:40;;;;;;;32.97;5.03;;;4.90;99.90;;;;;;5041429;28;20029;-58
2022/01/30 04:57:14;;;;;;;37.22;4.97;;;5.10;99.90;;;;;;5033469;28;20571;-58
2022/01/30 04:59:51;;;;;;;34.13;4.30;;;5.10;99.90;;;;;;5047255;28;20033;-59
2022/01/30 05:05:08;;;;;;;44.50;5.30;;;5.10;99.90;;;;;;5032629;28;20026;-58
2022/01/30 05:07:36;;;;;;;32.45;4.95;;;5.10;99.90;;;;;;5041107;28;20549;-59
2022/01/30 05:10:02;;;;;;;26.10;4.63;;;5.10;99.90;;;;;;5035287;28;20037;-59
2022/01/30 05:12:35;;;;;;;30.20;4.72;;;5.00;99.90;;;;;;5048514;28;20037;-57
2022/01/30 05:15:01;;;;;;;30.35;4.55;;;5.00;99.90;;;;;;5041101;28;20033;-59
2022/01/30 05:17:26;;;;;;;37.65;6.05;;;5.00;99.90;;;;;;5042373;28;20021;-58
2022/01/30 05:19:52;;;;;;;27.63;4.03;;;4.90;99.90;;;;;;5036901;28;20038;-57
2022/01/30 05:22:18;;;;;;;26.75;4.07;;;4.90;99.90;;;;;;5039930;28;20042;-59
2022/01/30 05:24:44;;;;;;;36.95;4.75;;;4.90;99.90;;;;;;5032939;28;20140;-58
2022/01/30 05:27:10;;;;;;;32.35;4.32;;;4.90;99.90;;;;;;5045654;28;20083;-58
2022/01/30 05:29:36;;;;;;;41.78;4.68;;;4.90;99.90;;;;;;5032151;28;20047;-59
2022/01/30 05:32:02;;;;;;;26.65;3.63;;;4.90;99.90;;;;;;5049923;28;20025;-58
2022/01/30 05:34:28;;;;;;;22.98;3.90;;;4.90;99.90;;;;;;5050842;28;20033;-58
2022/01/30 05:36:56;;;;;;;30.90;3.58;;;4.80;99.90;;;;;;5045019;28;20025;-57
2022/01/30 05:39:22;;;;;;;28.20;5.70;;;4.70;99.90;;;;;;5032425;28;20033;-58
2022/01/30 05:41:48;;;;;;;35.55;4.72;;;4.70;99.90;;;;;;5038222;28;20084;-57
2022/01/30 05:44:18;;;;;;;27.58;4.53;;;4.70;99.90;;;;;;5046975;28;20120;-58
2022/01/30 05:46:51;;;;;;;28.98;3.88;;;4.60;99.90;;;;;;5038463;28;20021;-58
2022/01/30 05:49:16;;;;;;;29.83;4.15;;;4.60;99.90;;;;;;5043269;28;20030;-58
2022/01/30 05:51:42;;;;;;;28.48;4.30;;;4.60;99.90;;;;;;5038995;28;20429;-59
2022/01/30 05:54:08;;;;;;;46.50;5.55;;;4.60;99.90;;;;;;5041935;28;20065;-55
2022/01/30 05:56:34;;;;;;;48.15;6.50;;;4.60;99.90;;;;;;5040223;28;20033;-59
2022/01/30 05:59:01;;;;;;;36.38;6.80;;;4.60;99.90;;;;;;5043887;28;20498;-59
2022/01/30 06:01:26;;;;;;;36.88;5.95;;;4.60;99.90;;;;;;5024288;28;20053;-59
2022/01/30 06:03:52;;;;;;;31.63;4.35;;;4.60;99.90;;;;;;5038247;28;20039;-55
2022/01/30 06:06:17;;;;;;;25.35;5.10;;;4.70;99.90;;;;;;5037825;28;20108;-58
2022/01/30 06:08:46;;;;;;;40.33;4.88;;;4.70;99.90;;;;;;5036530;28;20606;-58
2022/01/30 06:11:13;;;;;;;24.92;4.13;;;4.70;99.90;;;;;;5034835;28;20029;-59
2022/01/30 06:13:39;;;;;;;29.88;5.20;;;4.70;99.90;;;;;;5039286;28;20025;-59
2022/01/30 06:16:05;;;;;;;28.42;5.25;;;4.70;99.90;;;;;;5044240;28;20510;-54
2022/01/30 06:18:31;;;;;;;28.65;4.40;;;4.70;99.90;;;;;;5038784;28;20033;-57
2022/01/30 06:20:57;;;;;;;19.23;4.20;;;4.70;99.90;;;;;;5038314;28;20349;-57
2022/01/30 06:23:26;;;;;;;36.25;5.63;;;4.70;99.90;;;;;;5046393;28;20047;-57
2022/01/30 06:25:52;;;;;;;25.35;4.65;;;4.70;99.90;;;;;;5043908;28;20083;-59
2022/01/30 06:28:18;;;;;;;36.58;6.00;;;4.70;99.90;;;;;;5046790;28;20029;-58
2022/01/30 06:30:43;;;;;;;32.05;5.55;;;4.60;99.90;;;;;;5042537;28;20045;-58
2022/01/30 06:33:09;;;;;;;39.90;6.88;;;4.50;99.90;;;;;;5037997;28;20037;-59
2022/01/30 06:35:34;;;;;;;31.13;4.47;;;4.40;99.90;;;;;;5044785;28;20032;-59
2022/01/30 06:38:02;;;;;;;41.72;4.75;;;4.30;99.90;;;;;;5039886;28;20056;-59
2022/01/30 06:40:28;;;;;;;26.95;3.65;;;4.30;99.90;;;;;;5043873;28;20067;-59
2022/01/30 06:42:54;;;;;;;26.48;4.13;;;4.30;99.90;;;;;;5037494;28;20049;-59
2022/01/30 06:45:20;;;;;;;24.05;4.10;;;4.30;99.90;;;;;;5036090;28;20061;-59
2022/01/30 06:47:45;;;;;;;30.30;4.22;;;4.30;99.90;;;;;;5037319;28;20025;-59
2022/01/30 06:50:12;;;;;;;24.58;3.42;;;4.30;99.90;;;;;;5038215;28;20080;-60
2022/01/30 06:52:38;;;;;;;29.80;5.25;;;4.30;99.90;;;;;;5041236;28;20037;-60
2022/01/30 06:55:05;;;;;;;31.63;4.13;;;4.40;99.90;;;;;;5034256;28;20108;-60
2022/01/30 06:57:31;;;;;;;22.02;3.95;;;4.50;99.90;;;;;;5040600;28;20410;-58
2022/01/30 06:59:56;;;;;;;27.80;4.22;;;4.50;99.90;;;;;;5035418;28;20040;-60
2022/01/30 07:02:22;;;;;;;27.33;4.00;;;4.50;99.90;;;;;;5026215;28;20045;-59
2022/01/30 07:04:48;;;;;;;17.40;3.42;;;4.50;99.90;;;;;;5038763;28;20033;-60
2022/01/30 07:07:14;;;;;;;34.83;4.10;;;4.50;99.90;;;;;;5040155;28;20082;-60
2022/01/30 07:09:39;;;;;;;25.40;6.95;;;4.50;99.90;;;;;;5041151;28;20513;-59
2022/01/30 07:12:06;;;;;;;22.95;3.13;;;4.50;99.90;;;;;;5040122;28;20036;-60
2022/01/30 07:14:31;;;;;;;24.15;4.65;;;4.50;99.90;;;;;;5039687;28;20108;-60
2022/01/30 07:16:57;;;;;;;29.60;6.10;;;4.50;99.90;;;;;;5046073;28;20104;-60
2022/01/30 07:19:22;;;;;;;22.33;4.15;;;4.50;99.90;;;;;;5036766;28;20025;-60
2022/01/30 07:21:48;;;;;;;31.38;4.55;;;4.50;99.90;;;;;;5034087;28;20487;-60
2022/01/30 07:24:14;;;;;;;28.73;5.25;;;4.50;99.90;;;;;;5039370;28;20057;-60
2022/01/30 07:26:40;;;;;;;20.02;5.13;;;4.50;99.90;;;;;;5033635;28;20487;-60
2022/01/30 07:29:05;;;;;;;25.10;3.60;;;4.50;99.90;;;;;;5029639;28;20391;-60
2022/01/30 07:31:32;;;;;;;29.70;3.95;;;4.50;99.90;;;;;;5043344;28;20500;-60
2022/01/30 07:33:59;;;;;;;25.88;4.03;;;4.50;99.90;;;;;;5037138;28;20482;-59
2022/01/30 07:36:25;;;;;;;26.40;4.72;;;4.50;99.90;;;;;;5035246;28;20037;-60
2022/01/30 07:38:50;;;;;;;25.27;4.63;;;4.60;99.90;;;;;;5044931;28;20025;-60
2022/01/30 07:41:16;;;;;;;34.20;3.90;;;4.60;99.90;;;;;;5046630;28;20037;-59
2022/01/30 07:43:42;;;;;;;21.23;3.25;;;4.60;99.90;;;;;;5034374;28;20021;-60
2022/01/30 07:46:07;;;;;;;31.60;4.75;;;4.60;99.90;;;;;;5032327;28;20022;-57
2022/01/30 07:48:33;;;;;;;25.73;3.38;;;4.70;99.90;;;;;;5044021;28;20380;-59
2022/01/30 07:50:59;;;;;;;27.98;3.65;;;4.70;99.90;;;;;;5031001;28;20033;-60
2022/01/30 07:53:24;;;;;;;23.73;3.92;;;4.70;99.90;;;;;;5031612;28;20038;-60
2022/01/30 07:55:50;;;;;;;26.20;3.70;;;4.70;99.90;;;;;;5038800;28;20021;-60
2022/01/30 07:58:16;;;;;;;17.85;3.08;;;4.80;99.90;;;;;;5040668;28;20505;-60
2022/01/30 08:00:41;;;;;;;23.55;3.75;;;4.80;99.90;;;;;;5042965;28;20088;-60
2022/01/30 08:03:07;;;;;;;26.10;3.95;;;4.90;99.90;;;;;;5023985;28;20098;-59
2022/01/30 08:05:32;;;;;;;25.95;3.22;;;4.90;99.90;;;;;;5041892;28;20029;-61
2022/01/30 08:07:58;;;;;;;23.60;4.85;;;5.00;99.90;;;;;;5033935;28;20033;-59
2022/01/30 08:10:23;;;;;;;30.05;4.63;;;5.00;99.90;;;;;;5038149;28;20079;-61
2022/01/30 08:12:49;;;;;;;28.60;5.10;;;5.00;99.90;;;;;;5033582;28;20630;-57
2022/01/30 08:15:15;;;;;;;31.30;4.82;;;5.00;99.90;;;;;;5033413;28;20117;-57
2022/01/30 08:17:40;;;;;;;27.30;3.63;;;5.00;99.90;;;;;;5036246;28;20025;-60
2022/01/30 08:20:07;;;;;;;22.77;3.47;;;5.00;99.90;;;;;;5037382;28;20037;-60
2022/01/30 08:22:41;;;;;;;26.05;2.85;;;5.10;99.90;;;;;;5048900;28;20542;-60
2022/01/30 08:25:07;;;;;;;27.60;4.97;;;5.10;99.90;;;;;;5042752;28;20034;-60
2022/01/30 08:27:32;;;;;;;27.70;4.22;;;5.20;99.90;;;;;;5046484;28;20036;-59
2022/01/30 08:29:58;;;;;;;20.60;4.60;;;5.20;99.90;;;;;;5040588;28;20609;-60
2022/01/30 08:32:23;;;;;;;22.67;5.35;;;5.30;99.90;;;;;;5039391;28;20065;-60
2022/01/30 08:34:49;;;;;;;19.88;3.15;;;5.30;99.90;;;;;;5038848;28;20095;-60
2022/01/30 08:37:14;;;;;;;18.90;3.05;;;5.30;99.90;;;;;;5046897;28;20037;-59
2022/01/30 08:39:40;;;;;;;26.08;4.18;;;5.20;99.90;;;;;;5041273;28;20017;-60
2022/01/30 08:42:06;;;;;;;28.77;3.10;;;5.10;99.90;;;;;;5040220;28;20509;-60
2022/01/30 08:44:32;;;;;;;22.63;3.28;;;5.10;99.90;;;;;;5038015;28;20039;-60
2022/01/30 08:46:57;;;;;;;27.77;3.78;;;5.20;99.90;;;;;;5037883;28;20021;-60
2022/01/30 08:49:23;;;;;;;26.65;3.55;;;5.40;99.90;;;;;;5042326;28;20025;-60
2022/01/30 08:51:48;;;;;;;20.63;4.32;;;5.50;99.90;;;;;;5040110;28;20841;-60
2022/01/30 08:54:15;;;;;;;25.73;4.47;;;5.50;99.90;;;;;;5037094;28;20079;-60
2022/01/30 08:56:41;;;;;;;18.90;3.85;;;5.50;99.90;;;;;;5033384;28;20495;-60
2022/01/30 08:59:06;;;;;;;19.92;3.72;;;5.50;99.90;;;;;;5035480;28;20035;-59
2022/01/30 09:01:33;;;;;;;37.65;4.78;;;5.50;99.90;;;;;;5019633;28;20483;-59
2022/01/30 09:04:03;;;;;;;26.38;4.22;;;5.50;99.90;;;;;;5037951;28;20561;-57
2022/01/30 09:06:29;;;;;;;27.60;5.20;;;5.50;99.90;;;;;;5041273;28;20091;-56
2022/01/30 09:08:55;;;;;;;19.65;3.45;;;5.50;99.90;;;;;;5048845;28;20029;-59
2022/01/30 09:11:20;;;;;;;23.67;4.32;;;5.40;99.90;;;;;;5036087;28;20025;-59
2022/01/30 09:13:46;;;;;;;20.73;3.20;;;5.50;99.90;;;;;;5049225;28;20124;-58
2022/01/30 09:16:11;;;;;;;26.10;5.90;;;5.50;99.90;;;;;;5035257;28;20029;-60
2022/01/30 09:18:38;;;;;;;26.90;4.53;;;5.70;99.90;;;;;;5047473;28;20068;-58
2022/01/30 09:21:04;;;;;;;23.00;4.85;;;5.70;99.90;;;;;;5041257;28;20582;-59
2022/01/30 09:23:30;;;;;;;27.45;4.28;;;5.90;99.90;;;;;;5034017;28;20042;-59
2022/01/30 09:25:56;;;;;;;29.05;4.18;;;5.90;99.90;;;;;;5033452;28;20061;-60
2022/01/30 09:28:22;;;;;;;27.02;5.63;;;6.00;99.90;;;;;;5035178;28;20053;-59
2022/01/30 09:30:47;;;;;;;33.80;4.15;;;6.10;99.90;;;;;;5041500;28;20703;-59
2022/01/30 09:33:13;;;;;;;26.23;4.88;;;6.10;99.90;;;;;;5031759;28;20029;-59
2022/01/30 09:35:39;;;;;;;25.42;5.47;;;6.10;99.90;;;;;;5035863;28;20499;-60
2022/01/30 09:38:04;;;;;;;31.25;3.78;;;6.20;99.90;;;;;;5048446;28;20044;-57
2022/01/30 09:40:30;;;;;;;24.60;4.70;;;6.10;99.90;;;;;;5042831;28;20113;-59
2022/01/30 09:42:56;;;;;;;20.52;4.47;;;6.10;99.90;;;;;;5037014;28;20071;-58
2022/01/30 09:45:23;;;;;;;29.80;4.53;;;6.20;99.90;;;;;;5035637;28;20082;-59
2022/01/30 09:47:51;;;;;;;26.58;3.88;;;6.30;99.90;;;;;;5035337;28;20041;-60
2022/01/30 09:50:17;;;;;;;20.67;3.80;;;6.30;99.90;;;;;;5038277;28;20083;-58
2022/01/30 09:52:44;;;;;;;29.58;4.80;;;6.40;99.90;;;;;;5048551;28;20025;-59
2022/01/30 09:55:11;;;;;;;36.20;4.95;;;6.30;99.90;;;;;;5042805;28;20033;-60
2022/01/30 09:57:36;;;;;;;24.58;5.75;;;6.40;99.90;;;;;;5048708;28;20029;-60
2022/01/30 10:00:04;;;;;;;24.45;4.35;;;6.40;99.90;;;;;;5037626;28;20414;-60
2022/01/30 10:02:30;;;;;;;24.05;4.05;;;6.40;99.90;;;;;;5019854;28;20037;-59
2022/01/30 10:04:56;;;;;;;36.25;5.43;;;6.40;99.90;;;;;;5038450;28;20391;-60
2022/01/30 10:07:26;;;;;;;26.88;5.15;;;6.70;99.90;;;;;;5050741;28;20025;-59
2022/01/30 10:09:51;;;;;;;23.17;5.22;;;6.80;99.90;;;;;;5044214;28;20024;-59
2022/01/30 10:12:22;;;;;;;29.45;5.03;;;7.00;99.90;;;;;;5048352;28;20025;-60
2022/01/30 10:15:02;;;;;;;27.40;4.45;;;7.00;99.90;;;;;;5033719;28;20411;-59
2022/01/30 10:17:32;;;;;;;25.98;4.40;;;7.10;99.90;;;;;;5038112;28;20033;-56
2022/01/30 10:20:06;;;;;;;25.15;4.07;;;7.00;99.90;;;;;;5038688;28;20026;-58
2022/01/30 10:22:35;;;;;;;24.33;4.07;;;6.70;99.90;;;;;;5046744;28;20029;-56
2022/01/30 10:25:01;;;;;;;33.95;4.63;;;6.70;99.90;;;;;;5031912;28;20034;-59
2022/01/30 10:27:29;;;;;;;25.60;5.80;;;6.70;99.90;;;;;;5031768;28;20049;-60
2022/01/30 10:30:05;;;;;;;27.88;4.50;;;6.80;99.90;;;;;;5040353;28;20037;-59
2022/01/30 10:32:31;;;;;;;26.05;4.55;;;7.00;99.90;;;;;;5041299;28;20083;-55
2022/01/30 10:34:58;;;;;;;24.48;5.05;;;7.10;99.90;;;;;;5044173;28;20041;-56
2022/01/30 10:37:24;;;;;;;24.13;4.13;;;7.30;99.90;;;;;;5038324;28;20044;-59
2022/01/30 10:40:03;;;;;;;22.83;4.63;;;7.30;99.90;;;;;;5040469;28;20079;-58
2022/01/30 10:42:41;;;;;;;25.92;4.90;;;7.20;99.90;;;;;;5032156;28;20104;-58
2022/01/30 10:45:28;;;;;;;18.33;3.78;;;7.20;99.90;;;;;;5040218;28;20107;-60
2022/01/30 10:48:16;;;;;;;24.27;4.25;;;7.30;99.90;;;;;;5043823;28;20487;-60
2022/01/30 10:50:44;;;;;;;36.47;5.40;;;7.20;99.90;;;;;;5037891;28;20112;-60
2022/01/30 10:53:21;;;;;;;24.83;4.80;;;7.30;99.90;;;;;;5041713;28;20406;-60
2022/01/30 10:55:48;;;;;;;24.77;4.53;;;7.30;99.90;;;;;;5040355;28;20108;-60
2022/01/30 10:58:20;;;;;;;31.27;4.70;;;7.20;99.90;;;;;;5046862;28;20025;-60
2022/01/30 11:00:53;;;;;;;26.98;5.22;;;7.20;99.90;;;;;;5044126;28;20415;-60
2022/01/30 11:03:39;;;;;;;24.67;5.03;;;7.00;99.90;;;;;;5021193;28;20041;-60
2022/01/30 11:06:09;;;;;;;33.15;5.85;;;7.10;99.90;;;;;;5043773;28;20082;-60
2022/01/30 11:08:39;;;;;;;27.38;4.22;;;7.20;99.90;;;;;;5044738;28;20020;-59
2022/01/30 11:11:26;;;;;;;33.35;4.75;;;7.20;99.90;;;;;;5041211;28;20035;-60
2022/01/30 11:14:14;;;;;;;27.55;4.53;;;7.10;99.90;;;;;;5043371;28;20048;-59
2022/01/30 11:19:26;;;;;;;27.23;7.25;;;6.80;99.90;;;;;;5042778;28;20039;-58
2022/01/30 11:21:57;;;;;;;23.40;4.40;;;6.80;99.90;;;;;;5047126;28;20035;-59
2022/01/30 11:24:24;;;;;;;28.52;4.45;;;6.90;99.90;;;;;;5037337;28;20030;-60
2022/01/30 11:26:51;;;;;;;30.70;5.10;;;6.90;99.90;;;;;;5039844;28;20029;-60
2022/01/30 11:29:21;;;;;;;30.40;4.53;;;7.10;99.90;;;;;;5039455;28;20045;-59
2022/01/30 11:31:48;;;;;;;24.35;4.78;;;7.10;99.90;;;;;;5042430;28;20032;-60
2022/01/30 11:34:14;;;;;;;40.72;5.88;;;7.20;99.90;;;;;;5042441;28;20033;-59
2022/01/30 11:36:44;;;;;;;34.72;5.78;;;7.20;99.90;;;;;;5033744;28;20036;-60
2022/01/30 11:39:16;;;;;;;38.85;5.53;;;7.20;99.90;;;;;;5035401;28;20044;-57
2022/01/30 11:42:02;;;;;;;31.23;5.57;;;7.30;99.90;;;;;;5044667;28;20382;-59
2022/01/30 11:44:27;;;;;;;33.25;6.15;;;7.20;99.90;;;;;;5031482;28;20037;-59
2022/01/30 11:46:56;;;;;;;25.48;4.93;;;7.20;99.90;;;;;;5032910;28;20032;-60
2022/01/30 11:49:22;;;;;;;31.95;5.80;;;7.10;99.90;;;;;;5038580;28;20017;-59
2022/01/30 11:51:52;;;;;;;30.73;4.85;;;7.20;99.90;;;;;;5031135;28;20498;-59
2022/01/30 11:54:37;;;;;;;31.33;6.07;;;7.20;99.90;;;;;;5041331;28;20028;-60
2022/01/30 11:57:20;;;;;;;30.58;5.97;;;7.20;99.90;;;;;;5035780;28;20375;-60
2022/01/30 11:59:47;;;;;;;29.13;5.68;;;7.30;99.90;;;;;;5033696;28;20478;-56
2022/01/30 12:02:31;;;;;;;33.13;5.55;;;7.30;99.90;;;;;;5023279;28;20089;-59
2022/01/30 12:05:15;;;;;;;34.67;5.20;;;7.30;99.90;;;;;;5033077;28;20044;-59
2022/01/30 12:07:45;;;;;;;40.93;6.10;;;7.10;99.90;;;;;;5038822;28;20040;-59
2022/01/30 12:10:20;;;;;;;41.55;8.90;;;7.20;99.90;;;;;;5039817;28;20034;-59
2022/01/30 12:12:50;;;;;;;35.28;6.57;;;7.20;99.90;;;;;;5039788;28;20026;-59
2022/01/30 12:15:38;;;;;;;36.50;5.05;;;7.30;99.90;;;;;;5034772;28;20091;-59
2022/01/30 12:18:05;;;;;;;26.65;4.72;;;7.30;99.90;;;;;;5037737;28;20025;-57
2022/01/30 12:20:53;;;;;;;31.42;5.15;;;7.10;98.80;;;;;;5036836;28;20025;-58
2022/01/30 12:23:30;;;;;;;43.70;5.57;;;7.20;99.30;;;;;;5036543;28;20569;-56
2022/01/30 12:26:08;;;;;;;34.25;5.40;;;7.20;98.70;;;;;;5038464;28;20035;-55
2022/01/30 12:28:48;;;;;;;36.00;5.38;;;7.10;98.60;;;;;;5041704;28;20033;-59
2022/01/30 12:31:32;;;;;;;45.80;8.65;;;7.20;99.00;;;;;;5046114;28;20425;-58
2022/01/30 12:34:09;;;;;;;44.42;6.30;;;7.40;99.20;;;;;;5036999;28;20017;-59
2022/01/30 12:36:55;;;;;;;33.28;5.53;;;7.50;99.10;;;;;;5034598;28;20644;-57
2022/01/30 12:39:23;;;;;;;38.05;6.55;;;7.40;98.10;;;;;;5031814;28;20026;-59
2022/01/30 12:41:50;;;;;;;28.63;5.65;;;7.30;99.00;;;;;;5036620;28;20417;-58
2022/01/30 12:44:21;;;;;;;27.50;5.80;;;7.40;99.60;;;;;;5046384;28;20064;-60
2022/01/30 12:46:53;;;;;;;32.45;4.15;;;7.50;98.80;;;;;;5029996;28;20017;-59
2022/01/30 12:49:20;;;;;;;28.17;6.22;;;7.60;99.40;;;;;;5035351;28;20029;-61
2022/01/30 12:51:57;;;;;;;25.98;5.32;;;7.50;99.00;;;;;;5035695;28;20540;-60
2022/01/30 12:54:25;;;;;;;42.75;7.07;;;7.40;98.90;;;;;;5037786;28;20036;-60
2022/01/30 12:56:54;;;;;;;25.98;4.75;;;7.30;99.90;;;;;;5040787;28;20124;-60
2022/01/30 12:59:23;;;;;;;30.58;7.43;;;7.20;99.90;;;;;;5029401;28;20467;-59
2022/01/30 13:01:50;;;;;;;35.83;6.07;;;7.20;99.90;;;;;;5029746;28;20518;-58
2022/01/30 13:04:18;;;;;;;33.85;6.63;;;7.30;99.90;;;;;;5018097;28;20049;-60
2022/01/30 13:06:47;;;;;;;37.17;5.95;;;7.40;99.90;;;;;;5040820;28;20124;-60
2022/01/30 13:09:18;;;;;;;39.97;6.68;;;7.40;99.90;;;;;;5050780;28;20032;-59
2022/01/30 13:11:43;;;;;;;40.80;6.65;;;7.50;99.90;;;;;;5039929;28;20465;-59
2022/01/30 13:14:09;;;;;;;42.85;5.15;;;7.40;99.90;;;;;;5052571;28;20064;-60
2022/01/30 13:16:46;;;;;;;35.90;5.28;;;7.30;99.90;;;;;;5040231;28;20017;-58
2022/01/30 13:19:29;;;;;;;45.58;7.13;;;7.20;99.90;;;;;;5038018;28;20039;-57
2022/01/30 13:21:55;;;;;;;40.20;5.03;;;7.00;99.90;;;;;;5048106;28;20025;-60
2022/01/30 13:24:20;;;;;;;27.60;6.75;;;6.80;99.90;;;;;;5044844;28;20398;-59
2022/01/30 13:26:48;;;;;;;33.90;5.15;;;6.80;99.90;;;;;;5032956;28;20052;-60
2022/01/30 13:29:20;;;;;;;35.40;5.22;;;6.70;99.90;;;;;;5032716;28;20030;-60
2022/01/30 13:31:51;;;;;;;25.52;4.45;;;6.70;99.90;;;;;;5043602;28;20033;-60
2022/01/30 13:34:19;;;;;;;22.42;5.40;;;6.60;99.20;;;;;;5045805;28;20067;-61
2022/01/30 13:36:54;;;;;;;23.38;4.40;;;6.50;99.80;;;;;;5041726;28;20462;-60
2022/01/30 13:39:27;;;;;;;26.60;5.30;;;6.50;99.90;;;;;;5034538;28;20124;-60
2022/01/30 13:42:05;;;;;;;23.00;5.40;;;6.60;99.90;;;;;;5039620;28;20025;-60
2022/01/30 13:45:04;;;;;;;31.95;5.22;;;6.80;99.60;;;;;;5038171;28;20175;-60
2022/01/30 13:47:30;;;;;;;35.72;6.47;;;7.00;99.90;;;;;;5040043;28;20060;-58